createdAt,value
2023-10-08T00:02:23.567Z,4.97
2023-10-08T00:05:04.867Z,4.25
2023-10-08T00:07:52.432Z,7.75
2023-10-08T00:10:32.412Z,4.03
2023-10-08T00:13:07.418Z,6.65
2023-10-08T00:15:37.534Z,5.95
2023-10-08T00:18:19.512Z,4.93
2023-10-08T00:21:06.404Z,7.43
2023-10-08T00:23:43.680Z,4.68
2023-10-08T00:26:20.413Z,6.57
2023-10-08T00:28:48.949Z,8.73
2023-10-08T00:31:20.329Z,6.47
2023-10-08T00:33:54.379Z,7.00
2023-10-08T00:36:24.463Z,7.28
2023-10-08T00:39:01.548Z,11.63
2023-10-08T00:41:38.471Z,6.63
2023-10-08T00:44:16.737Z,8.10
2023-10-08T00:46:50.918Z,5.95
2023-10-08T00:49:34.055Z,14.65
2023-10-08T00:52:08.711Z,5.80
2023-10-08T00:54:59.226Z,12.15
2023-10-08T00:57:31.731Z,7.28
2023-10-08T01:00:06.968Z,10.05
2023-10-08T01:03:03.078Z,4.63
2023-10-08T01:05:55.101Z,6.32
2023-10-08T01:08:42.051Z,5.65
2023-10-08T01:11:34.782Z,8.18
2023-10-08T01:14:10.024Z,10.32
2023-10-08T01:16:49.963Z,7.10
2023-10-08T01:19:28.009Z,5.95
2023-10-08T01:21:59.676Z,13.68
2023-10-08T01:24:35.007Z,11.85
2023-10-08T01:27:06.273Z,8.70
2023-10-08T01:29:41.017Z,11.10
2023-10-08T01:32:12.644Z,5.32
2023-10-08T01:34:40.728Z,11.52
2023-10-08T01:37:20.002Z,8.98
2023-10-08T01:39:51.717Z,6.97
2023-10-08T01:42:26.007Z,7.45
2023-10-08T01:45:02.025Z,9.60
2023-10-08T01:47:31.699Z,10.15
2023-10-08T01:50:13.019Z,7.35
2023-10-08T01:52:48.029Z,8.05
2023-10-08T01:55:25.973Z,10.30
2023-10-08T01:57:58.414Z,6.65
2023-10-08T02:00:34.010Z,7.15
2023-10-08T02:03:10.129Z,11.65
2023-10-08T02:05:46.232Z,9.27
2023-10-08T02:08:23.000Z,9.93
2023-10-08T02:11:12.030Z,9.20
2023-10-08T02:13:46.990Z,6.22
2023-10-08T02:16:27.066Z,5.20
2023-10-08T02:18:56.690Z,5.95
2023-10-08T02:21:26.610Z,8.35
2023-10-08T02:24:02.274Z,9.93
2023-10-08T02:26:37.335Z,9.95
2023-10-08T02:29:18.294Z,7.78
2023-10-08T02:31:46.206Z,8.73
2023-10-08T02:34:21.238Z,9.43
2023-10-08T02:36:55.258Z,10.85
2023-10-08T02:39:33.290Z,6.75
2023-10-08T02:42:11.961Z,9.25
2023-10-08T02:44:49.351Z,10.07
2023-10-08T02:47:29.296Z,5.13
2023-10-08T02:50:03.279Z,8.15
2023-10-08T02:52:38.300Z,5.85
2023-10-08T02:55:20.293Z,6.10
2023-10-08T02:57:54.259Z,4.72
2023-10-08T03:00:28.261Z,7.68
2023-10-08T03:03:11.249Z,7.63
2023-10-08T03:05:46.327Z,6.60
2023-10-08T03:08:23.387Z,8.55
2023-10-08T03:11:03.007Z,5.97
2023-10-08T03:13:31.113Z,7.22
2023-10-08T03:16:17.078Z,5.05
2023-10-08T03:18:58.377Z,10.05
2023-10-08T03:21:53.035Z,8.02
2023-10-08T03:24:36.149Z,8.15
2023-10-08T03:27:28.996Z,8.25
2023-10-08T03:30:00.272Z,9.73
2023-10-08T03:32:34.975Z,6.82
2023-10-08T03:35:12.020Z,9.73
2023-10-08T03:37:54.015Z,6.20
2023-10-08T03:40:50.966Z,7.32
2023-10-08T03:43:32.027Z,4.30
2023-10-08T03:46:01.041Z,7.32
2023-10-08T03:48:40.991Z,4.75
2023-10-08T03:51:18.965Z,5.38
2023-10-08T03:54:25.973Z,7.90
2023-10-08T03:57:01.009Z,10.30
2023-10-08T03:59:39.035Z,3.97
2023-10-08T04:02:30.150Z,9.07
2023-10-08T04:04:59.509Z,5.72
2023-10-08T04:07:37.030Z,7.57
2023-10-08T04:10:16.033Z,9.45
2023-10-08T04:12:52.000Z,7.15
2023-10-08T04:15:28.004Z,4.90
2023-10-08T04:18:04.169Z,10.77
2023-10-08T04:20:41.102Z,4.43
2023-10-08T04:23:20.387Z,6.50
2023-10-08T04:26:02.001Z,8.70
2023-10-08T04:28:42.021Z,6.97
2023-10-08T04:31:23.034Z,6.60
2023-10-08T04:33:52.616Z,4.05
2023-10-08T04:36:28.080Z,5.70
2023-10-08T04:38:56.130Z,6.30
2023-10-08T04:41:36.066Z,6.35
2023-10-08T04:44:17.182Z,7.00
2023-10-08T04:46:49.328Z,10.05
2023-10-08T04:49:34.007Z,5.03
2023-10-08T04:52:15.300Z,10.30
2023-10-08T04:54:59.038Z,4.45
2023-10-08T04:57:31.410Z,7.18
2023-10-08T05:00:06.059Z,6.97
2023-10-08T05:02:57.167Z,5.35
2023-10-08T05:05:58.141Z,6.60
2023-10-08T05:08:55.138Z,6.22
2023-10-08T05:11:56.041Z,7.40
2023-10-08T05:14:44.549Z,8.05
2023-10-08T05:17:21.464Z,8.27
2023-10-08T05:19:59.472Z,7.25
2023-10-08T05:22:46.376Z,6.60
2023-10-08T05:25:17.226Z,7.25
2023-10-08T05:27:56.511Z,7.38
2023-10-08T05:30:43.399Z,5.43
2023-10-08T05:33:31.386Z,5.45
2023-10-08T05:36:11.435Z,4.78
2023-10-08T05:38:56.415Z,7.75
2023-10-08T05:41:40.344Z,8.75
2023-10-08T05:44:27.378Z,4.57
2023-10-08T05:46:55.592Z,4.55
2023-10-08T05:49:46.517Z,6.75
2023-10-08T05:52:33.385Z,9.20
2023-10-08T05:55:22.478Z,7.95
2023-10-08T05:58:00.440Z,6.22
2023-10-08T06:00:47.873Z,4.20
2023-10-08T06:03:44.595Z,4.88
2023-10-08T06:06:13.700Z,4.72
2023-10-08T06:09:08.404Z,6.35
2023-10-08T06:11:46.370Z,3.53
2023-10-08T06:14:21.456Z,4.07
2023-10-08T06:17:03.297Z,6.00
2023-10-08T06:19:41.441Z,7.38
2023-10-08T06:22:16.425Z,8.88
2023-10-08T06:24:44.877Z,6.40
2023-10-08T06:27:24.402Z,9.98
2023-10-08T06:29:58.469Z,5.32
2023-10-08T06:32:26.654Z,6.40
2023-10-08T06:35:04.438Z,5.07
2023-10-08T06:37:34.951Z,4.70
2023-10-08T06:40:10.453Z,6.88
2023-10-08T06:42:38.555Z,8.10
2023-10-08T06:45:22.395Z,6.50
2023-10-08T06:47:53.832Z,6.97
2023-10-08T06:50:29.848Z,7.53
2023-10-08T06:52:58.619Z,6.93
2023-10-08T06:55:34.785Z,6.60
2023-10-08T06:58:06.767Z,10.55
2023-10-08T07:00:47.878Z,10.00
2023-10-08T07:03:26.903Z,11.48
2023-10-08T07:06:10.938Z,9.40
2023-10-08T07:08:45.837Z,10.75
2023-10-08T07:11:20.772Z,8.02
2023-10-08T07:13:49.877Z,8.38
2023-10-08T07:16:25.822Z,7.15
2023-10-08T07:19:00.760Z,8.00
2023-10-08T07:21:45.740Z,9.50
2023-10-08T07:24:24.749Z,11.15
2023-10-08T07:27:03.788Z,8.45
2023-10-08T07:29:40.791Z,11.48
2023-10-08T07:32:11.456Z,12.00
2023-10-08T07:34:46.763Z,8.98
2023-10-08T07:37:21.719Z,21.10
2023-10-08T07:39:57.811Z,11.65
2023-10-08T07:42:27.830Z,13.63
2023-10-08T07:45:03.821Z,11.18
2023-10-08T07:47:38.807Z,8.68
2023-10-08T07:50:13.315Z,8.88
2023-10-08T07:53:03.174Z,8.68
2023-10-08T07:55:43.319Z,7.70
2023-10-08T07:58:12.480Z,8.50
2023-10-08T08:00:48.205Z,11.95
2023-10-08T08:03:37.210Z,9.48
2023-10-08T08:06:09.134Z,11.23
2023-10-08T08:08:46.190Z,8.98
2023-10-08T08:11:14.512Z,9.52
2023-10-08T08:13:52.262Z,12.43
2023-10-08T08:16:22.295Z,9.43
2023-10-08T08:19:05.157Z,9.50
2023-10-08T08:21:39.178Z,7.75
2023-10-08T08:24:14.368Z,6.60
2023-10-08T08:27:09.223Z,11.82
2023-10-08T08:29:53.242Z,14.55
2023-10-08T08:32:27.396Z,9.77
2023-10-08T08:35:02.142Z,11.73
2023-10-08T08:37:39.167Z,7.95
2023-10-08T08:40:11.214Z,8.50
2023-10-08T08:42:46.230Z,10.68
2023-10-08T08:45:27.194Z,10.93
2023-10-08T08:47:55.662Z,10.70
2023-10-08T08:50:30.174Z,9.43
2023-10-08T08:53:06.165Z,9.98
2023-10-08T08:55:41.405Z,9.95
2023-10-08T08:58:19.125Z,5.60
2023-10-08T09:00:53.561Z,8.70
2023-10-08T09:03:28.359Z,8.60
2023-10-08T09:06:03.197Z,9.13
2023-10-08T09:08:35.896Z,12.05
2023-10-08T09:11:12.211Z,10.18
2023-10-08T09:13:48.243Z,9.15
2023-10-08T09:16:18.916Z,8.68
2023-10-08T09:18:56.244Z,7.78
2023-10-08T09:21:24.469Z,12.75
2023-10-08T09:24:02.229Z,8.50
2023-10-08T09:26:37.306Z,10.40
2023-10-08T09:29:16.141Z,9.55
2023-10-08T09:31:59.325Z,8.35
2023-10-08T09:34:38.217Z,13.80
2023-10-08T09:37:06.399Z,12.75
2023-10-08T09:39:37.087Z,14.52
2023-10-08T09:42:18.191Z,14.15
2023-10-08T09:44:46.310Z,8.43
2023-10-08T09:47:25.183Z,10.57
2023-10-08T09:50:00.142Z,14.65
2023-10-08T09:53:14.169Z,12.57
2023-10-08T09:56:02.152Z,10.10
2023-10-08T09:58:38.198Z,16.73
2023-10-08T10:01:06.289Z,15.13
2023-10-08T10:03:44.449Z,13.15
2023-10-08T10:06:20.295Z,13.32
2023-10-08T10:08:57.385Z,15.80
2023-10-08T10:11:31.959Z,21.60
2023-10-08T10:14:09.446Z,12.15
2023-10-08T10:16:41.024Z,13.90
2023-10-08T10:19:23.645Z,15.23
2023-10-08T10:21:52.821Z,21.52
2023-10-08T10:24:45.335Z,17.85
2023-10-08T10:27:19.023Z,17.40
2023-10-08T10:29:57.931Z,19.92
2023-10-08T10:32:25.910Z,17.15
2023-10-08T10:35:00.362Z,24.88
2023-10-08T10:37:48.353Z,16.70
2023-10-08T10:40:37.390Z,18.48
2023-10-08T10:43:08.158Z,25.33
2023-10-08T10:45:44.614Z,18.05
2023-10-08T10:48:14.836Z,18.20
2023-10-08T10:51:08.663Z,21.85
2023-10-08T10:54:10.087Z,23.25
2023-10-08T10:56:52.629Z,22.80
2023-10-08T10:59:21.263Z,16.85
2023-10-08T11:02:13.599Z,19.23
2023-10-08T11:04:56.540Z,12.50
2023-10-08T11:07:34.754Z,18.95
2023-10-08T11:10:07.682Z,17.80
2023-10-08T11:12:54.738Z,14.40
2023-10-08T11:15:31.776Z,18.33
2023-10-08T11:18:07.854Z,20.30
2023-10-08T11:20:40.984Z,13.77
2023-10-08T11:23:27.788Z,13.25
2023-10-08T11:26:09.764Z,16.83
2023-10-08T11:28:48.606Z,16.33
2023-10-08T11:31:27.735Z,15.23
2023-10-08T11:34:08.782Z,19.30
2023-10-08T11:36:56.734Z,25.20
2023-10-08T11:39:52.768Z,17.17
2023-10-08T11:42:32.881Z,13.10
2023-10-08T11:45:07.811Z,20.13
2023-10-08T11:47:37.173Z,12.55
2023-10-08T11:50:18.127Z,16.75
2023-10-08T11:52:54.022Z,18.60
2023-10-08T11:55:29.041Z,20.15
2023-10-08T11:57:58.666Z,16.25
2023-10-08T12:00:37.566Z,19.10
2023-10-08T12:03:13.623Z,22.88
2023-10-08T12:05:52.019Z,18.35
2023-10-08T12:08:28.674Z,24.17
2023-10-08T12:10:56.969Z,25.73
2023-10-08T12:13:36.591Z,18.88
2023-10-08T12:16:08.090Z,12.27
2023-10-08T12:18:51.706Z,20.45
2023-10-08T12:21:19.846Z,17.15
2023-10-08T12:23:55.027Z,20.60
2023-10-08T12:26:24.258Z,16.23
2023-10-08T12:28:52.468Z,12.70
2023-10-08T12:31:29.637Z,20.85
2023-10-08T12:34:08.481Z,18.88
2023-10-08T12:36:44.548Z,17.73
2023-10-08T12:39:22.575Z,22.63
2023-10-08T12:42:00.400Z,20.58
2023-10-08T12:44:35.497Z,22.48
2023-10-08T12:47:06.994Z,17.50
2023-10-08T12:49:41.552Z,15.27
2023-10-08T12:52:10.304Z,17.13
2023-10-08T12:54:52.500Z,15.88
2023-10-08T12:57:27.539Z,18.50
2023-10-08T13:00:08.695Z,21.67
2023-10-08T13:02:47.725Z,19.10
2023-10-08T13:05:29.244Z,10.40
2023-10-08T13:08:05.516Z,27.42
2023-10-08T13:10:40.586Z,15.57
2023-10-08T13:13:08.415Z,18.98
2023-10-08T13:15:36.555Z,21.55
2023-10-08T13:18:26.657Z,17.70
2023-10-08T13:21:02.430Z,23.17
2023-10-08T13:23:37.632Z,21.25
2023-10-08T13:26:12.532Z,17.20
2023-10-08T13:28:41.398Z,20.52
2023-10-08T13:31:19.131Z,15.43
2023-10-08T13:33:56.618Z,23.77
2023-10-08T13:36:25.299Z,23.88
2023-10-08T13:38:53.355Z,17.25
2023-10-08T13:41:27.542Z,21.92
2023-10-08T13:44:09.531Z,17.95
2023-10-08T13:46:38.197Z,23.92
2023-10-08T13:49:13.599Z,19.10
2023-10-08T13:51:47.507Z,24.83
2023-10-08T13:54:22.576Z,22.98
2023-10-08T13:56:51.170Z,14.48
2023-10-08T13:59:25.535Z,23.35
2023-10-08T14:01:53.896Z,20.05
2023-10-08T14:04:37.717Z,22.30
2023-10-08T14:07:18.747Z,25.85
2023-10-08T14:09:53.512Z,15.40
2023-10-08T14:12:21.564Z,14.98
2023-10-08T14:14:56.660Z,20.08
2023-10-08T14:17:47.565Z,13.57
2023-10-08T14:20:32.092Z,17.80
2023-10-08T14:23:03.593Z,25.35
2023-10-08T14:25:41.581Z,15.13
2023-10-08T14:28:09.860Z,22.83
2023-10-08T14:30:48.520Z,28.20
2023-10-08T14:33:25.780Z,23.38
2023-10-08T14:36:20.550Z,18.70
2023-10-08T14:39:10.772Z,25.25
2023-10-08T14:42:03.646Z,19.88
2023-10-08T14:44:31.574Z,19.15
2023-10-08T14:47:06.572Z,23.52
2023-10-08T14:49:41.604Z,17.92
2023-10-08T14:52:15.598Z,20.08
2023-10-08T14:54:44.628Z,13.68
2023-10-08T14:57:22.527Z,22.30
2023-10-08T14:59:56.637Z,22.50
2023-10-08T15:02:36.580Z,27.38
2023-10-08T15:05:12.405Z,24.02
2023-10-08T15:07:48.550Z,16.63
2023-10-08T15:10:25.662Z,24.88
2023-10-08T15:13:05.645Z,19.70
2023-10-08T15:15:36.203Z,21.63
2023-10-08T15:18:11.678Z,24.80
2023-10-08T15:20:42.727Z,16.42
2023-10-08T15:23:19.572Z,21.45
2023-10-08T15:25:47.510Z,26.73
2023-10-08T15:28:31.553Z,23.08
2023-10-08T15:30:59.920Z,19.90
2023-10-08T15:33:34.630Z,19.67
2023-10-08T15:36:09.593Z,20.15
2023-10-08T15:38:43.645Z,13.88
2023-10-08T15:41:12.899Z,26.65
2023-10-08T15:43:52.574Z,25.02
2023-10-08T15:46:21.082Z,20.15
2023-10-08T15:48:49.115Z,15.32
2023-10-08T15:51:28.576Z,23.60
2023-10-08T15:54:02.673Z,21.58
2023-10-08T15:56:31.347Z,18.35
2023-10-08T15:59:05.624Z,14.77
2023-10-08T16:01:40.682Z,17.52
2023-10-08T16:04:15.736Z,21.58
2023-10-08T16:06:57.605Z,24.42
2023-10-08T16:09:25.871Z,24.60
2023-10-08T16:12:00.681Z,17.80
2023-10-08T16:14:28.773Z,20.65
2023-10-08T16:17:03.633Z,24.17
2023-10-08T16:19:33.634Z,14.32
2023-10-08T16:22:08.570Z,13.82
2023-10-08T16:24:44.626Z,24.48
2023-10-08T16:27:19.616Z,15.93
2023-10-08T16:29:48.765Z,14.55
2023-10-08T16:32:23.589Z,17.08
2023-10-08T16:34:51.685Z,15.55
2023-10-08T16:37:29.609Z,14.07
2023-10-08T16:39:58.027Z,26.40
2023-10-08T16:42:33.580Z,21.08
2023-10-08T16:45:01.511Z,18.08
2023-10-08T16:47:36.701Z,26.35
2023-10-08T16:50:11.652Z,25.88
2023-10-08T16:52:40.057Z,17.58
2023-10-08T16:55:07.785Z,19.05
2023-10-08T16:57:42.639Z,24.35
2023-10-08T17:00:15.193Z,20.52
2023-10-08T17:02:49.647Z,25.10
2023-10-08T17:05:24.761Z,21.60
2023-10-08T17:08:05.580Z,25.02
2023-10-08T17:10:33.559Z,18.95
2023-10-08T17:13:07.909Z,22.83
2023-10-08T17:15:43.635Z,26.70
2023-10-08T17:18:18.705Z,16.95
2023-10-08T17:20:47.219Z,29.08
2023-10-08T17:23:22.626Z,15.25
2023-10-08T17:25:58.636Z,23.98
2023-10-08T17:28:27.207Z,28.83
2023-10-08T17:31:03.605Z,23.48
2023-10-08T17:33:33.866Z,27.00
2023-10-08T17:36:08.628Z,20.33
2023-10-08T17:38:37.332Z,17.75
2023-10-08T17:41:12.588Z,30.45
2023-10-08T17:43:40.204Z,22.67
2023-10-08T17:46:15.647Z,22.80
2023-10-08T17:48:43.917Z,25.55
2023-10-08T17:51:18.702Z,31.92
2023-10-08T17:53:47.133Z,20.90
2023-10-08T17:56:16.474Z,36.00
2023-10-08T17:58:51.597Z,38.08
2023-10-08T18:01:19.489Z,40.28
2023-10-08T18:03:58.710Z,25.95
2023-10-08T18:06:32.880Z,34.05
2023-10-08T18:09:07.652Z,24.88
2023-10-08T18:11:36.064Z,33.13
2023-10-08T18:14:10.759Z,28.90
2023-10-08T18:16:42.249Z,34.72
2023-10-08T18:19:24.991Z,26.95
2023-10-08T18:21:53.116Z,42.20
2023-10-08T18:24:28.697Z,38.55
2023-10-08T18:26:56.498Z,47.80
2023-10-08T18:29:30.613Z,31.90
2023-10-08T18:32:05.597Z,31.80
2023-10-08T18:34:40.651Z,38.17
2023-10-08T18:37:08.476Z,39.08
2023-10-08T18:39:43.630Z,28.80
2023-10-08T18:42:17.714Z,31.02
2023-10-08T18:44:52.665Z,42.28
2023-10-08T18:47:21.007Z,29.27
2023-10-08T18:50:12.523Z,30.42
2023-10-08T18:52:42.886Z,26.25
2023-10-08T18:55:17.645Z,30.73
2023-10-08T18:57:48.620Z,35.17
2023-10-08T19:00:16.433Z,39.25
2023-10-08T19:02:50.704Z,27.58
2023-10-08T19:05:33.596Z,36.15
2023-10-08T19:08:01.363Z,19.48
2023-10-08T19:10:37.640Z,32.75
2023-10-08T19:13:12.686Z,33.45
2023-10-08T19:15:47.721Z,26.23
2023-10-08T19:18:19.143Z,29.05
2023-10-08T19:20:47.514Z,31.05
2023-10-08T19:23:21.654Z,35.97
2023-10-08T19:25:51.800Z,34.58
2023-10-08T19:28:21.223Z,26.02
2023-10-08T19:30:58.644Z,34.60
2023-10-08T19:33:26.898Z,34.92
2023-10-08T19:36:05.767Z,33.10
2023-10-08T19:38:39.660Z,28.25
2023-10-08T19:41:21.786Z,27.05
2023-10-08T19:43:57.680Z,31.45
2023-10-08T19:46:32.722Z,33.50
2023-10-08T19:49:01.104Z,24.58
2023-10-08T19:51:28.956Z,29.35
2023-10-08T19:54:03.732Z,28.50
2023-10-08T19:56:37.647Z,32.70
2023-10-08T19:59:19.692Z,38.08
2023-10-08T20:01:53.793Z,31.52
2023-10-08T20:04:41.836Z,22.70
2023-10-08T20:07:16.658Z,29.52
2023-10-08T20:09:53.645Z,26.17
2023-10-08T20:12:23.402Z,29.77
2023-10-08T20:14:58.855Z,26.98
2023-10-08T20:17:26.599Z,25.90
2023-10-08T20:20:01.689Z,30.88
2023-10-08T20:22:30.870Z,21.55
2023-10-08T20:25:05.659Z,30.23
2023-10-08T20:27:39.671Z,28.83
2023-10-08T20:30:23.901Z,23.13
2023-10-08T20:32:59.753Z,32.00
2023-10-08T20:35:28.467Z,32.83
2023-10-08T20:38:04.683Z,33.13
2023-10-08T20:40:38.416Z,26.85
2023-10-08T20:43:13.655Z,30.52
2023-10-08T20:45:45.041Z,29.45
2023-10-08T20:48:21.728Z,27.58
2023-10-08T20:50:57.679Z,26.95
2023-10-08T20:53:26.147Z,27.77
2023-10-08T20:56:00.659Z,29.90
2023-10-08T20:58:28.893Z,23.13
2023-10-08T21:01:06.690Z,24.58
2023-10-08T21:03:34.913Z,24.77
2023-10-08T21:06:17.744Z,21.33
2023-10-08T21:08:46.451Z,29.02
2023-10-08T21:11:23.686Z,16.92
2023-10-08T21:13:52.391Z,24.85
2023-10-08T21:16:26.716Z,26.85
2023-10-08T21:18:55.883Z,27.55
2023-10-08T21:21:31.722Z,20.90
2023-10-08T21:24:00.212Z,24.10
2023-10-08T21:26:36.786Z,28.58
2023-10-08T21:29:11.683Z,21.13
2023-10-08T21:31:42.461Z,23.73
2023-10-08T21:34:17.780Z,21.80
2023-10-08T21:36:45.399Z,22.60
2023-10-08T21:39:20.784Z,21.90
2023-10-08T21:41:56.348Z,22.88
2023-10-08T21:44:30.695Z,22.27
2023-10-08T21:47:05.863Z,21.20
2023-10-08T21:49:33.794Z,24.95
2023-10-08T21:52:08.772Z,20.33
2023-10-08T21:54:37.919Z,21.55
2023-10-08T21:57:12.719Z,24.25
2023-10-08T21:59:40.723Z,21.00
2023-10-08T22:02:14.730Z,26.70
2023-10-08T22:04:49.715Z,17.13
2023-10-08T22:07:31.672Z,17.50
2023-10-08T22:10:05.676Z,16.17
2023-10-08T22:12:41.701Z,18.20
2023-10-08T22:15:32.707Z,21.17
2023-10-08T22:18:10.751Z,21.45
2023-10-08T22:20:46.693Z,18.15
2023-10-08T22:23:28.701Z,23.35
2023-10-08T22:26:03.708Z,20.05
2023-10-08T22:28:32.190Z,21.95
2023-10-08T22:31:06.778Z,20.25
2023-10-08T22:33:41.709Z,19.80
2023-10-08T22:36:27.742Z,30.80
2023-10-08T22:39:02.733Z,32.33
2023-10-08T22:41:45.375Z,15.95
2023-10-08T22:44:22.707Z,24.05
2023-10-08T22:47:11.352Z,23.65
2023-10-08T22:49:46.744Z,19.60
2023-10-08T22:52:23.673Z,29.77
2023-10-08T22:54:52.632Z,27.88
2023-10-08T22:57:30.737Z,26.17
2023-10-08T22:59:58.510Z,20.45
2023-10-08T23:02:40.791Z,19.92
2023-10-08T23:05:22.822Z,31.63
2023-10-08T23:08:00.693Z,23.33
2023-10-08T23:10:38.704Z,30.67
2023-10-08T23:13:09.426Z,32.65
2023-10-08T23:15:50.700Z,28.70
2023-10-08T23:18:24.751Z,26.48
2023-10-08T23:20:59.781Z,25.10
2023-10-08T23:23:28.356Z,31.27
2023-10-08T23:26:04.719Z,20.10
2023-10-08T23:28:41.730Z,27.48
2023-10-08T23:31:10.078Z,27.88
2023-10-08T23:33:46.816Z,31.20
2023-10-08T23:36:21.811Z,31.67
2023-10-08T23:38:59.754Z,21.38
2023-10-08T23:41:34.009Z,26.17
2023-10-08T23:44:10.721Z,19.08
2023-10-08T23:46:44.459Z,24.63
2023-10-08T23:49:26.720Z,33.80
2023-10-08T23:52:04.733Z,24.98
2023-10-08T23:54:41.770Z,24.60
2023-10-08T23:57:25.729Z,28.20
2023-10-08T23:59:57.892Z,30.98
